Time;durP1;ratioP1;P1;durP2;ratioP2;P2;SDS_P1;SDS_P2;PMS_P1;PMS_P2;Temp;Humidity;BMP_temperature;BMP_pressure;BME280_temperature;BME280_humidity;BME280_pressure;Samples;Min_cycle;Max_cycle;Signal;HPM_P1;HPM_P2
2023/06/17 00:00:06;;;;;;;;;;;20.10;55.50;;;;;;6100173;23;19905;-95
2023/06/17 00:02:49;;;;;;;;;;;20.10;55.30;;;;;;6099520;23;19905;-94
2023/06/17 00:05:18;;;;;;;;;;;19.90;55.30;;;;;;6076623;23;19999;-94
2023/06/17 00:07:58;;;;;;;;;;;20.10;55.50;;;;;;6099914;23;19905;-94
2023/06/17 00:10:23;;;;;;;;;;;20.50;55.50;;;;;;6076362;23;19913;-94
2023/06/17 00:12:49;;;;;;;;;;;20.00;55.30;;;;;;6075750;23;19916;-95
2023/06/17 00:15:18;;;;;;;;;;;20.00;55.30;;;;;;6100606;23;19912;-95
2023/06/17 00:17:46;;;;;;;;;;;20.00;56.00;;;;;;6076120;23;20330;-94
2023/06/17 00:20:14;;;;;;;;;;;20.00;55.40;;;;;;6099598;23;19905;-95
2023/06/17 00:22:43;;;;;;;;;;;19.90;55.40;;;;;;6100128;23;20370;-94
2023/06/17 00:25:10;;;;;;;;;;;20.00;55.50;;;;;;6100434;23;19912;-95
2023/06/17 00:27:39;;;;;;;;;;;20.00;55.40;;;;;;6100418;23;19912;-95
2023/06/17 00:30:08;;;;;;;;;;;20.00;55.40;;;;;;6100456;23;19909;-94
2023/06/17 00:32:40;;;;;;;;;;;20.00;55.50;;;;;;6100459;23;19912;-94
2023/06/17 00:35:08;;;;;;;;;;;20.00;55.60;;;;;;6100253;23;20311;-94
2023/06/17 00:37:34;;;;;;;;;;;20.00;55.40;;;;;;6099575;23;19920;-93
2023/06/17 00:40:00;;;;;;;;;;;19.90;55.50;;;;;;6099275;23;19905;-94
2023/06/17 00:42:28;;;;;;;;;;;19.90;55.40;;;;;;6101087;23;19905;-94
2023/06/17 00:44:54;;;;;;;;;;;19.90;55.30;;;;;;6101557;23;19920;-93
2023/06/17 00:47:26;;;;;;;;;;;19.90;55.30;;;;;;6101835;23;20311;-95
2023/06/17 00:50:01;;;;;;;;;;;20.20;55.50;;;;;;6100975;23;19912;-94
2023/06/17 00:52:29;;;;;;;;;;;19.90;55.40;;;;;;6099678;23;20047;-95
2023/06/17 00:55:11;;;;;;;;;;;19.90;55.30;;;;;;6101623;23;19916;-94
2023/06/17 00:57:37;;;;;;;;;;;19.90;55.40;;;;;;6101209;23;19905;-93
2023/06/17 01:00:06;;;;;;;;;;;19.90;55.50;;;;;;6101255;23;20389;-94
2023/06/17 01:02:46;;;;;;;;;;;19.90;55.30;;;;;;6101414;23;19939;-94
2023/06/17 01:05:12;;;;;;;;;;;19.90;55.50;;;;;;6101401;23;19919;-94
2023/06/17 01:07:45;;;;;;;;;;;19.90;55.30;;;;;;6101175;23;19951;-94
2023/06/17 01:10:20;;;;;;;;;;;19.90;55.30;;;;;;6101353;23;19905;-94
2023/06/17 01:12:59;;;;;;;;;;;19.90;55.30;;;;;;6101066;23;19912;-95
2023/06/17 01:15:26;;;;;;;;;;;19.80;55.30;;;;;;6101498;23;20263;-95
2023/06/17 01:18:11;;;;;;;;;;;19.80;55.30;;;;;;6100717;23;19933;-94
2023/06/17 01:20:44;;;;;;;;;;;19.80;55.40;;;;;;6101213;23;19904;-94
2023/06/17 01:23:14;;;;;;;;;;;19.90;55.50;;;;;;6101401;23;19905;-95
2023/06/17 01:25:39;;;;;;;;;;;19.90;55.50;;;;;;6101344;23;19909;-94
2023/06/17 01:28:15;;;;;;;;;;;19.80;55.60;;;;;;6101414;23;19912;-94
2023/06/17 01:30:44;;;;;;;;;;;19.80;55.60;;;;;;6101666;23;19905;-95
2023/06/17 01:33:11;;;;;;;;;;;19.80;55.40;;;;;;6101721;23;19956;-94
2023/06/17 01:35:56;;;;;;;;;;;19.80;55.50;;;;;;6102450;23;19905;-94
2023/06/17 01:38:35;;;;;;;;;;;19.80;55.50;;;;;;6101542;23;19905;-93
2023/06/17 01:41:02;;;;;;;;;;;19.80;55.50;;;;;;6100819;23;19905;-94
2023/06/17 01:43:32;;;;;;;;;;;19.80;55.50;;;;;;6101159;23;20354;-95
2023/06/17 01:45:59;;;;;;;;;;;19.80;55.50;;;;;;6077182;23;19912;-93
2023/06/17 01:48:27;;;;;;;;;;;19.80;55.60;;;;;;6101180;23;19909;-94
2023/06/17 01:50:52;;;;;;;;;;;19.80;55.60;;;;;;6100691;23;20343;-94
2023/06/17 01:53:18;;;;;;;;;;;19.80;55.60;;;;;;6101235;23;19912;-94
2023/06/17 01:55:44;;;;;;;;;;;19.70;55.60;;;;;;6100844;23;19905;-94
2023/06/17 01:58:10;;;;;;;;;;;19.70;55.60;;;;;;6101895;23;19916;-95
2023/06/17 02:00:36;;;;;;;;;;;19.70;55.60;;;;;;6077705;23;19920;-94
2023/06/17 02:03:01;;;;;;;;;;;19.70;55.60;;;;;;6076819;23;19909;-94
2023/06/17 02:05:27;;;;;;;;;;;19.70;55.60;;;;;;6100960;23;20326;-94
2023/06/17 02:07:55;;;;;;;;;;;19.70;55.60;;;;;;6100837;23;19911;-93
2023/06/17 02:10:29;;;;;;;;;;;19.60;55.60;;;;;;6098112;23;20241;-94
2023/06/17 02:12:55;;;;;;;;;;;19.70;55.60;;;;;;6100783;23;19905;-93
2023/06/17 02:15:21;;;;;;;;;;;20.60;56.10;;;;;;6100486;23;19956;-94
2023/06/17 02:17:47;;;;;;;;;;;19.70;55.70;;;;;;6101023;23;19929;-94
2023/06/17 02:20:15;;;;;;;;;;;19.60;55.70;;;;;;6100568;23;19905;-93
2023/06/17 02:22:41;;;;;;;;;;;19.70;55.80;;;;;;6076442;23;19940;-95
2023/06/17 02:25:07;;;;;;;;;;;19.70;55.70;;;;;;6099969;23;19960;-94
2023/06/17 02:27:33;;;;;;;;;;;19.60;56.30;;;;;;6096291;23;20307;-94
2023/06/17 02:30:00;;;;;;;;;;;19.70;55.70;;;;;;6075970;23;20335;-95
2023/06/17 02:32:27;;;;;;;;;;;19.60;55.70;;;;;;6100815;23;19912;-94
2023/06/17 02:34:54;;;;;;;;;;;19.60;55.70;;;;;;6100549;23;20314;-94
2023/06/17 02:37:22;;;;;;;;;;;19.60;55.70;;;;;;6100592;23;19928;-93
2023/06/17 02:39:48;;;;;;;;;;;19.70;55.80;;;;;;6100071;23;19905;-94
2023/06/17 02:42:13;;;;;;;;;;;19.60;55.80;;;;;;6100697;23;20239;-94
2023/06/17 02:44:39;;;;;;;;;;;19.60;55.70;;;;;;6100139;23;19905;-92
2023/06/17 02:47:06;;;;;;;;;;;19.60;55.70;;;;;;6075930;23;19913;-94
2023/06/17 02:49:31;;;;;;;;;;;19.60;55.80;;;;;;6099235;23;19905;-94
2023/06/17 02:52:00;;;;;;;;;;;19.60;55.80;;;;;;6100124;23;19980;-95
2023/06/17 02:54:26;;;;;;;;;;;19.60;55.80;;;;;;6100954;23;19905;-94
2023/06/17 02:56:52;;;;;;;;;;;19.60;55.80;;;;;;6099381;23;20315;-95
2023/06/17 02:59:33;;;;;;;;;;;19.60;55.80;;;;;;6100485;23;19915;-95
2023/06/17 03:01:59;;;;;;;;;;;19.50;55.80;;;;;;6100121;23;19983;-93
2023/06/17 03:04:34;;;;;;;;;;;19.60;55.90;;;;;;6099957;23;19909;-94
2023/06/17 03:07:12;;;;;;;;;;;19.50;55.90;;;;;;6100247;23;19945;-95
2023/06/17 03:09:37;;;;;;;;;;;19.50;55.90;;;;;;6100559;23;19912;-94
2023/06/17 03:12:06;;;;;;;;;;;19.50;56.00;;;;;;6100261;23;20381;-94
2023/06/17 03:14:33;;;;;;;;;;;19.50;55.90;;;;;;6101520;23;19916;-94
2023/06/17 03:17:10;;;;;;;;;;;19.60;56.00;;;;;;6076417;23;19913;-94
2023/06/17 03:19:36;;;;;;;;;;;19.50;56.00;;;;;;6076812;23;20320;-94
2023/06/17 03:22:08;;;;;;;;;;;19.50;55.90;;;;;;6100154;23;19909;-95
2023/06/17 03:24:33;;;;;;;;;;;19.50;56.00;;;;;;6100759;23;19905;-95
2023/06/17 03:27:01;;;;;;;;;;;19.50;56.00;;;;;;6100357;23;19932;-94
2023/06/17 03:29:28;;;;;;;;;;;19.50;56.10;;;;;;6100431;23;19909;-95
2023/06/17 03:32:00;;;;;;;;;;;19.50;56.10;;;;;;6100497;23;20378;-94
2023/06/17 03:34:32;;;;;;;;;;;19.50;56.00;;;;;;6077893;23;19909;-94
2023/06/17 03:37:08;;;;;;;;;;;19.40;56.10;;;;;;6100160;23;19909;-94
2023/06/17 03:39:34;;;;;;;;;;;19.40;56.00;;;;;;6100312;23;20165;-95
2023/06/17 03:42:00;;;;;;;;;;;19.50;56.20;;;;;;6100481;23;19943;-95
2023/06/17 03:44:26;;;;;;;;;;;19.50;56.10;;;;;;6075643;23;19985;-95
2023/06/17 03:46:51;;;;;;;;;;;19.50;56.10;;;;;;6099791;23;19928;-95
2023/06/17 03:49:17;;;;;;;;;;;19.50;56.20;;;;;;6099853;23;20223;-95
2023/06/17 03:51:52;;;;;;;;;;;19.40;56.20;;;;;;6099979;23;19973;-95
2023/06/17 03:54:18;;;;;;;;;;;19.40;56.20;;;;;;6100136;23;20366;-94
2023/06/17 03:56:47;;;;;;;;;;;19.40;56.20;;;;;;6100177;23;19912;-94
2023/06/17 03:59:22;;;;;;;;;;;19.50;56.30;;;;;;6099730;23;19964;-96
2023/06/17 04:01:50;;;;;;;;;;;19.40;56.30;;;;;;6099515;23;19959;-94
2023/06/17 04:04:16;;;;;;;;;;;19.90;56.50;;;;;;6100152;23;20310;-94
2023/06/17 04:06:57;;;;;;;;;;;19.40;56.30;;;;;;6099184;23;19988;-94
2023/06/17 04:09:26;;;;;;;;;;;20.00;56.70;;;;;;6100344;23;20311;-94
2023/06/17 04:11:52;;;;;;;;;;;19.80;56.50;;;;;;6099850;23;19912;-94
2023/06/17 04:14:24;;;;;;;;;;;19.40;56.90;;;;;;6100124;23;19905;-95
2023/06/17 04:16:49;;;;;;;;;;;19.30;56.30;;;;;;6100142;23;19905;-93
2023/06/17 04:22:21;;;;;;;;;;;19.40;56.40;;;;;;6036258;23;19910;-94
2023/06/17 04:24:47;;;;;;;;;;;19.40;56.40;;;;;;6012448;23;19981;-92
2023/06/17 04:27:13;;;;;;;;;;;19.40;56.50;;;;;;6016942;23;19913;-94
2023/06/17 04:29:39;;;;;;;;;;;19.40;56.50;;;;;;6012192;23;20341;-96
2023/06/17 04:32:16;;;;;;;;;;;19.40;56.60;;;;;;6013425;23;20073;-95
2023/06/17 04:35:09;;;;;;;;;;;19.40;56.70;;;;;;6012868;23;19937;-93
2023/06/17 04:37:37;;;;;;;;;;;19.40;56.60;;;;;;6012701;23;19993;-94
2023/06/17 04:40:06;;;;;;;;;;;19.30;56.60;;;;;;6012029;23;19953;-95
2023/06/17 04:42:33;;;;;;;;;;;19.40;56.70;;;;;;6013110;23;20311;-94
2023/06/17 04:44:59;;;;;;;;;;;19.40;56.80;;;;;;6012216;23;20019;-94
2023/06/17 04:47:31;;;;;;;;;;;19.30;56.70;;;;;;6036189;23;19910;-95
2023/06/17 04:50:06;;;;;;;;;;;19.30;56.70;;;;;;6012249;23;19949;-94
2023/06/17 04:52:34;;;;;;;;;;;19.40;56.80;;;;;;6036204;23;19913;-95
2023/06/17 04:55:00;;;;;;;;;;;19.30;56.80;;;;;;6012301;23;19910;-94
2023/06/17 04:57:26;;;;;;;;;;;19.40;56.90;;;;;;6012636;23;19913;-93
2023/06/17 04:59:51;;;;;;;;;;;19.30;56.90;;;;;;6077634;23;20231;-95
2023/06/17 05:02:17;;;;;;;;;;;19.40;57.00;;;;;;6098989;23;19909;-94
2023/06/17 05:04:43;;;;;;;;;;;19.30;56.90;;;;;;6099879;23;19905;-94
2023/06/17 05:07:11;;;;;;;;;;;19.40;57.20;;;;;;6099937;23;19905;-94
2023/06/17 05:09:46;;;;;;;;;;;19.40;57.20;;;;;;6099433;23;19905;-94
2023/06/17 05:12:11;;;;;;;;;;;19.30;57.30;;;;;;6100702;23;19931;-94
2023/06/17 05:14:39;;;;;;;;;;;19.40;57.40;;;;;;6100346;23;20434;-94
2023/06/17 05:17:12;;;;;;;;;;;19.40;57.50;;;;;;6100284;23;19913;-94
2023/06/17 05:19:38;;;;;;;;;;;19.40;57.50;;;;;;6101137;23;19952;-93
2023/06/17 05:22:04;;;;;;;;;;;19.40;57.60;;;;;;6102685;23;19909;-93
2023/06/17 05:24:32;;;;;;;;;;;19.40;57.70;;;;;;6100718;23;19948;-93
2023/06/17 05:26:58;;;;;;;;;;;19.40;57.70;;;;;;6100064;23;19908;-95
2023/06/17 05:29:29;;;;;;;;;;;19.50;57.80;;;;;;6101483;23;20323;-94
2023/06/17 05:31:55;;;;;;;;;;;19.40;57.80;;;;;;6100238;23;19916;-94
2023/06/17 05:34:21;;;;;;;;;;;19.40;57.80;;;;;;6101358;23;19909;-94
2023/06/17 05:36:46;;;;;;;;;;;19.40;57.90;;;;;;6101272;23;19948;-94
2023/06/17 05:39:25;;;;;;;;;;;19.50;58.10;;;;;;6100216;23;19905;-94
2023/06/17 05:42:06;;;;;;;;;;;19.50;58.20;;;;;;6101990;23;19909;-94
2023/06/17 05:44:34;;;;;;;;;;;19.50;58.20;;;;;;6098994;23;19929;-94
2023/06/17 05:47:00;;;;;;;;;;;19.50;58.30;;;;;;6101433;23;19908;-95
2023/06/17 05:49:39;;;;;;;;;;;19.50;58.40;;;;;;6101113;23;19944;-94
2023/06/17 05:52:05;;;;;;;;;;;19.50;58.40;;;;;;6101711;23;19909;-94
2023/06/17 05:55:32;;;;;;;;;;;19.50;58.50;;;;;;6102208;23;19948;-95
2023/06/17 05:57:57;;;;;;;;;;;19.50;58.50;;;;;;5959383;24;19945;-96
2023/06/17 06:00:23;;;;;;;;;;;19.50;58.60;;;;;;5958726;24;19907;-95
2023/06/17 06:02:52;;;;;;;;;;;19.50;58.70;;;;;;5959036;24;19907;-95
2023/06/17 06:05:27;;;;;;;;;;;19.60;58.80;;;;;;5935393;24;19914;-95
2023/06/17 06:08:07;;;;;;;;;;;19.60;58.80;;;;;;5958830;24;20329;-95
2023/06/17 06:10:36;;;;;;;;;;;19.60;58.90;;;;;;5958131;24;19911;-95
2023/06/17 06:13:10;;;;;;;;;;;19.60;59.00;;;;;;5981654;23;19910;-95
2023/06/17 06:15:46;;;;;;;;;;;19.60;59.20;;;;;;5958073;24;20283;-95
2023/06/17 06:18:20;;;;;;;;;;;19.70;59.30;;;;;;5957500;24;20332;-95
2023/06/17 06:20:46;;;;;;;;;;;19.70;59.30;;;;;;5957235;24;19926;-94
2023/06/17 06:23:35;;;;;;;;;;;19.70;60.00;;;;;;5958055;24;19982;-95
2023/06/17 06:26:04;;;;;;;;;;;19.70;59.40;;;;;;5956525;24;20340;-94
2023/06/17 06:28:32;;;;;;;;;;;19.90;59.60;;;;;;5957476;24;19946;-94
2023/06/17 06:33:50;;;;;;;;;;;19.70;59.50;;;;;;6008546;23;19912;-94
2023/06/17 06:36:22;;;;;;;;;;;19.80;59.70;;;;;;5985604;23;19906;-95
2023/06/17 06:38:51;;;;;;;;;;;19.80;59.90;;;;;;5985472;23;19946;-94
2023/06/17 06:41:36;;;;;;;;;;;20.40;60.20;;;;;;5984711;23;19907;-95
2023/06/17 06:44:12;;;;;;;;;;;19.90;60.00;;;;;;5986645;23;19993;-95
2023/06/17 06:46:40;;;;;;;;;;;19.90;59.90;;;;;;5985633;23;19910;-95
2023/06/17 06:49:09;;;;;;;;;;;19.80;59.90;;;;;;5985247;23;19906;-95
2023/06/17 06:51:36;;;;;;;;;;;19.90;59.90;;;;;;5984654;23;19910;-94
2023/06/17 06:54:10;;;;;;;;;;;20.00;60.00;;;;;;5985785;23;19915;-94
2023/06/17 06:56:36;;;;;;;;;;;20.00;60.00;;;;;;5984595;23;19929;-83
2023/06/17 07:14:50;;;;;;;;;;;20.20;59.50;;;;;;5980872;24;19913;-95
2023/06/17 07:17:21;;;;;;;;;;;20.20;59.30;;;;;;5848179;24;19915;-96
2023/06/17 07:19:50;;;;;;;;;;;20.30;59.30;;;;;;5870772;24;19912;-96
2023/06/17 07:22:19;;;;;;;;;;;20.30;59.20;;;;;;5870110;24;19908;-96
2023/06/17 07:24:59;;;;;;;;;;;20.30;59.10;;;;;;5871740;24;19912;-96
2023/06/17 07:27:27;;;;;;;;;;;20.70;59.10;;;;;;5871315;24;19969;-95
2023/06/17 07:29:54;;;;;;;;;;;20.40;58.90;;;;;;5870842;24;19912;-96
2023/06/17 07:32:26;;;;;;;;;;;20.50;58.80;;;;;;5870665;24;19916;-96
2023/06/17 07:35:13;;;;;;;;;;;20.50;58.70;;;;;;5872262;24;19908;-95
2023/06/17 07:37:50;;;;;;;;;;;20.50;58.60;;;;;;5870368;24;19908;-95
2023/06/17 07:40:24;;;;;;;;;;;20.60;58.50;;;;;;5870171;24;19962;-95
2023/06/17 07:43:28;;;;;;;;;;;20.60;58.40;;;;;;5870533;24;19999;-94
2023/06/17 07:46:05;;;;;;;;;;;20.60;58.40;;;;;;5888039;24;19963;-94
2023/06/17 07:48:43;;;;;;;;;;;20.70;58.30;;;;;;5973852;24;19986;-94
2023/06/17 07:51:14;;;;;;;;;;;20.70;58.80;;;;;;5980026;23;19907;-95
2023/06/17 07:53:43;;;;;;;;;;;20.70;58.10;;;;;;6016921;23;19913;-95
2023/06/17 07:56:09;;;;;;;;;;;21.20;58.30;;;;;;6101181;23;19940;-94
2023/06/17 07:58:34;;;;;;;;;;;20.80;58.00;;;;;;6100378;23;20430;-93
2023/06/17 08:01:29;;;;;;;;;;;20.80;57.90;;;;;;6100183;23;20307;-96
2023/06/17 08:04:16;;;;;;;;;;;20.90;57.90;;;;;;6096589;23;19913;-95
2023/06/17 08:09:53;;;;;;;;;;;21.00;57.90;;;;;;6053238;23;19976;-94
2023/06/17 08:12:18;;;;;;;;;;;21.00;57.80;;;;;;6100333;23;19941;-94
2023/06/17 08:14:51;;;;;;;;;;;21.00;57.80;;;;;;6100314;23;19909;-92
2023/06/17 08:17:26;;;;;;;;;;;21.00;57.70;;;;;;6100186;23;19905;-96
2023/06/17 08:19:58;;;;;;;;;;;21.10;57.70;;;;;;6099941;23;19912;-95
2023/06/17 08:22:23;;;;;;;;;;;21.10;57.70;;;;;;6076848;23;19959;-95
2023/06/17 08:24:58;;;;;;;;;;;21.10;57.70;;;;;;6100094;23;19933;-93
2023/06/17 08:27:25;;;;;;;;;;;21.20;57.80;;;;;;6100622;23;19937;-94
2023/06/17 08:29:59;;;;;;;;;;;21.20;57.70;;;;;;6098697;23;20315;-93
2023/06/17 08:32:29;;;;;;;;;;;21.20;57.60;;;;;;6099611;23;19909;-92
2023/06/17 08:34:54;;;;;;;;;;;21.20;57.60;;;;;;6095786;23;19960;-91
2023/06/17 08:37:22;;;;;;;;;;;21.20;57.60;;;;;;6075875;23;19909;-93
2023/06/17 08:39:56;;;;;;;;;;;21.30;57.60;;;;;;6100326;23;19905;-93
2023/06/17 08:42:28;;;;;;;;;;;21.30;57.50;;;;;;6100080;23;19959;-91
2023/06/17 08:44:57;;;;;;;;;;;21.30;57.40;;;;;;6075720;23;19925;-92
2023/06/17 08:47:25;;;;;;;;;;;21.30;57.30;;;;;;6099569;23;19909;-91
2023/06/17 08:49:57;;;;;;;;;;;21.30;57.30;;;;;;6075500;23;19929;-91
2023/06/17 08:52:23;;;;;;;;;;;21.30;57.20;;;;;;6076467;23;19909;-92
2023/06/17 08:54:57;;;;;;;;;;;21.30;57.20;;;;;;6075957;23;19944;-91
2023/06/17 08:57:23;;;;;;;;;;;21.30;57.20;;;;;;6077502;23;19922;-90
2023/06/17 08:59:51;;;;;;;;;;;21.30;57.10;;;;;;6099310;23;20377;-91
2023/06/17 09:02:24;;;;;;;;;;;21.30;57.10;;;;;;6076540;23;19928;-92
2023/06/17 09:04:50;;;;;;;;;;;21.30;57.20;;;;;;6098273;23;19916;-91
2023/06/17 09:07:21;;;;;;;;;;;21.30;57.10;;;;;;6077441;23;19913;-94
2023/06/17 09:10:29;;;;;;;;;;;;;;;;;;;;;
2023/06/17 09:12:59;;;;;;;;;;;21.50;57.20;;;;;;6127749;23;20003;-90
2023/06/17 09:15:24;;;;;;;;;;;21.30;57.20;;;;;;6103938;23;19912;-91
2023/06/17 09:17:52;;;;;;;;;;;21.30;57.10;;;;;;6078106;23;19913;-91
2023/06/17 09:20:18;;;;;;;;;;;21.30;57.00;;;;;;6077972;23;19913;-92
2023/06/17 09:22:45;;;;;;;;;;;21.30;56.90;;;;;;6101537;23;19912;-91
2023/06/17 09:25:18;;;;;;;;;;;21.30;57.00;;;;;;6077086;23;19983;-91
2023/06/17 09:27:44;;;;;;;;;;;21.30;56.90;;;;;;6101121;23;20004;-92
2023/06/17 09:30:16;;;;;;;;;;;21.30;56.70;;;;;;6077834;23;19909;-94
2023/06/17 09:32:53;;;;;;;;;;;21.30;56.60;;;;;;6094525;23;19905;-92
2023/06/17 09:35:41;;;;;;;;;;;21.30;56.30;;;;;;6077262;23;19909;-92
2023/06/17 09:38:27;;;;;;;;;;;21.30;55.80;;;;;;6101411;23;20319;-92
2023/06/17 09:41:12;;;;;;;;;;;21.30;55.80;;;;;;6101180;23;20311;-92
2023/06/17 09:43:38;;;;;;;;;;;21.20;55.50;;;;;;6077462;23;19967;-91
2023/06/17 09:46:09;;;;;;;;;;;21.30;55.30;;;;;;6076935;23;20239;-91
2023/06/17 09:48:41;;;;;;;;;;;21.30;55.20;;;;;;6078636;23;19920;-92
2023/06/17 09:51:37;;;;;;;;;;;21.20;55.80;;;;;;6076373;23;19913;-91
2023/06/17 09:54:04;;;;;;;;;;;21.30;54.80;;;;;;6101613;23;20032;-91
2023/06/17 09:56:33;;;;;;;;;;;21.30;54.80;;;;;;6076430;23;19909;-91
2023/06/17 09:59:08;;;;;;;;;;;21.30;54.70;;;;;;6077468;23;19909;-92
2023/06/17 10:01:39;;;;;;;;;;;21.30;54.90;;;;;;6078389;23;19909;-92
2023/06/17 10:04:05;;;;;;;;;;;21.30;55.10;;;;;;6100478;23;19979;-91
2023/06/17 10:06:34;;;;;;;;;;;21.40;55.20;;;;;;6101219;23;19909;-90
2023/06/17 10:09:19;;;;;;;;;;;21.40;54.60;;;;;;6076834;23;20339;-92
2023/06/17 10:11:46;;;;;;;;;;;21.40;54.10;;;;;;6099803;23;20302;-91
2023/06/17 10:14:18;;;;;;;;;;;21.40;55.10;;;;;;6100778;23;19909;-93
2023/06/17 10:16:47;;;;;;;;;;;21.40;53.90;;;;;;6076167;23;19915;-91
2023/06/17 10:19:19;;;;;;;;;;;21.50;54.20;;;;;;6100979;23;19932;-92
2023/06/17 10:21:46;;;;;;;;;;;21.40;54.30;;;;;;6101264;23;19909;-92
2023/06/17 10:24:12;;;;;;;;;;;21.50;54.30;;;;;;6077087;23;19959;-91
2023/06/17 10:26:38;;;;;;;;;;;21.40;54.10;;;;;;6077004;23;20000;-91
2023/06/17 10:29:10;;;;;;;;;;;21.40;54.10;;;;;;6101684;23;19947;-91
2023/06/17 10:31:42;;;;;;;;;;;21.40;53.80;;;;;;6102291;23;19916;-91
2023/06/17 10:34:28;;;;;;;;;;;21.40;53.70;;;;;;6102644;23;19945;-90
2023/06/17 10:37:02;;;;;;;;;;;21.40;52.90;;;;;;6100523;23;19905;-91
2023/06/17 10:39:37;;;;;;;;;;;21.50;52.90;;;;;;6078657;23;20319;-93
2023/06/17 10:42:18;;;;;;;;;;;21.50;52.80;;;;;;6079759;23;19909;-93
2023/06/17 10:44:44;;;;;;;;;;;21.50;51.70;;;;;;6101440;23;19909;-90
2023/06/17 10:47:21;;;;;;;;;;;21.50;52.10;;;;;;6100702;23;19908;-91
2023/06/17 10:49:50;;;;;;;;;;;21.40;52.10;;;;;;6075762;23;20275;-91
2023/06/17 10:52:19;;;;;;;;;;;21.40;51.90;;;;;;6100649;23;19908;-92
2023/06/17 10:54:49;;;;;;;;;;;21.40;50.90;;;;;;6100622;23;19917;-91
2023/06/17 10:57:37;;;;;;;;;;;21.40;50.00;;;;;;6101163;23;19987;-92
2023/06/17 11:00:23;;;;;;;;;;;21.40;50.60;;;;;;6098159;23;19905;-92
2023/06/17 11:02:48;;;;;;;;;;;21.40;51.10;;;;;;6098327;23;20303;-92
2023/06/17 11:05:15;;;;;;;;;;;21.40;51.30;;;;;;6099552;23;20000;-91
2023/06/17 11:07:40;;;;;;;;;;;21.30;51.30;;;;;;6099844;23;19905;-91
2023/06/17 11:10:27;;;;;;;;;;;21.40;51.40;;;;;;6076657;23;20430;-91
2023/06/17 11:12:55;;;;;;;;;;;21.30;51.20;;;;;;6100124;23;19909;-92
2023/06/17 11:15:23;;;;;;;;;;;21.30;51.60;;;;;;6100375;23;19905;-90
2023/06/17 11:18:21;;;;;;;;;;;21.30;51.80;;;;;;6075639;23;19922;-90
2023/06/17 11:20:49;;;;;;;;;;;21.40;52.00;;;;;;6099818;23;19909;-85
2023/06/17 11:23:14;;;;;;;;;;;21.40;52.30;;;;;;6075185;23;19913;-88
2023/06/17 11:26:00;;;;;;;;;;;21.50;52.70;;;;;;6098419;23;20241;-88
2023/06/17 11:28:35;;;;;;;;;;;21.50;51.50;;;;;;6098303;23;19988;-87
2023/06/17 11:31:00;;;;;;;;;;;21.60;51.00;;;;;;6075360;23;19915;-89
2023/06/17 11:33:47;;;;;;;;;;;21.60;50.80;;;;;;6098680;23;19941;-88
2023/06/17 11:36:13;;;;;;;;;;;21.60;51.00;;;;;;6124121;23;19987;-87
2023/06/17 11:38:39;;;;;;;;;;;21.60;51.60;;;;;;6098840;23;19905;-88
2023/06/17 11:41:13;;;;;;;;;;;21.60;50.30;;;;;;6074794;23;20003;-87
2023/06/17 11:43:38;;;;;;;;;;;21.60;51.10;;;;;;6075459;23;20230;-89
2023/06/17 11:46:05;;;;;;;;;;;21.60;52.30;;;;;;6075085;23;19913;-90
2023/06/17 11:48:34;;;;;;;;;;;21.60;52.00;;;;;;6075632;23;19909;-90
2023/06/17 11:51:00;;;;;;;;;;;21.60;51.10;;;;;;6098535;23;19934;-89
2023/06/17 11:53:39;;;;;;;;;;;21.60;49.80;;;;;;6099546;23;19964;-89
2023/06/17 11:56:05;;;;;;;;;;;21.70;51.10;;;;;;6075188;23;20239;-90
2023/06/17 11:58:51;;;;;;;;;;;21.60;50.50;;;;;;6074543;23;20323;-87
2023/06/17 12:01:16;;;;;;;;;;;21.60;50.20;;;;;;6124126;23;19981;-88
2023/06/17 12:03:48;;;;;;;;;;;21.70;51.40;;;;;;6099834;23;20377;-89
2023/06/17 12:06:20;;;;;;;;;;;21.70;50.60;;;;;;6075415;23;19913;-89
2023/06/17 12:08:55;;;;;;;;;;;21.60;50.40;;;;;;6098696;23;19916;-90
2023/06/17 12:11:47;;;;;;;;;;;21.60;49.80;;;;;;6075207;23;19960;-88
2023/06/17 12:14:12;;;;;;;;;;;21.60;50.20;;;;;;6092526;23;19909;-90
2023/06/17 12:16:40;;;;;;;;;;;21.70;49.30;;;;;;6099633;23;19911;-89
2023/06/17 12:19:26;;;;;;;;;;;21.70;48.40;;;;;;6076250;23;19913;-90
2023/06/17 12:21:52;;;;;;;;;;;21.70;49.10;;;;;;6099123;23;19905;-89
2023/06/17 12:24:17;;;;;;;;;;;21.60;48.30;;;;;;6076379;23;19916;-89
2023/06/17 12:26:44;;;;;;;;;;;21.60;48.30;;;;;;6075163;23;19913;-89
2023/06/17 12:29:10;;;;;;;;;;;21.60;48.30;;;;;;6075049;23;19916;-90
2023/06/17 12:31:36;;;;;;;;;;;21.50;48.30;;;;;;6075357;23;19917;-92
2023/06/17 12:34:21;;;;;;;;;;;21.50;48.90;;;;;;6075871;23;19956;-91
2023/06/17 12:36:47;;;;;;;;;;;21.50;48.80;;;;;;6098266;23;20405;-89
2023/06/17 12:39:13;;;;;;;;;;;21.60;48.20;;;;;;6076392;23;19933;-88
2023/06/17 12:41:38;;;;;;;;;;;21.60;49.60;;;;;;6076530;23;19940;-88
2023/06/17 12:44:24;;;;;;;;;;;21.70;49.60;;;;;;6100935;23;19912;-89
2023/06/17 12:47:10;;;;;;;;;;;21.70;47.80;;;;;;6099920;23;19944;-89
2023/06/17 12:49:55;;;;;;;;;;;21.70;47.30;;;;;;6100800;23;19936;-89
2023/06/17 12:52:21;;;;;;;;;;;21.70;47.60;;;;;;6100865;23;19905;-89
2023/06/17 12:54:55;;;;;;;;;;;21.70;47.10;;;;;;6101245;23;19916;-89
2023/06/17 12:57:21;;;;;;;;;;;21.80;48.40;;;;;;6076817;23;19972;-89
2023/06/17 12:59:47;;;;;;;;;;;21.80;49.30;;;;;;6077142;23;20315;-90
2023/06/17 13:02:21;;;;;;;;;;;21.80;49.80;;;;;;6077656;23;20238;-93
2023/06/17 13:04:47;;;;;;;;;;;21.80;48.70;;;;;;6078286;23;19909;-89
2023/06/17 13:07:33;;;;;;;;;;;21.80;47.20;;;;;;6077176;23;20377;-88
2023/06/17 13:09:59;;;;;;;;;;;21.80;47.10;;;;;;6099996;23;20345;-89
2023/06/17 13:12:24;;;;;;;;;;;21.80;47.10;;;;;;6100461;23;19909;-88
2023/06/17 13:14:50;;;;;;;;;;;21.80;47.80;;;;;;6100463;23;20296;-88
2023/06/17 13:17:15;;;;;;;;;;;21.90;46.60;;;;;;6077378;23;19913;-87
2023/06/17 13:19:42;;;;;;;;;;;21.90;46.40;;;;;;6100173;23;19905;-90
2023/06/17 13:22:07;;;;;;;;;;;21.80;46.10;;;;;;6076889;23;19916;-89
2023/06/17 13:24:33;;;;;;;;;;;21.80;45.60;;;;;;6101048;23;20237;-89
2023/06/17 13:26:59;;;;;;;;;;;21.70;46.70;;;;;;6099940;23;19912;-87
2023/06/17 13:29:24;;;;;;;;;;;21.80;47.00;;;;;;6099529;23;19932;-88
2023/06/17 13:31:51;;;;;;;;;;;21.80;46.60;;;;;;6099757;23;20008;-89
2023/06/17 13:34:18;;;;;;;;;;;21.70;45.70;;;;;;6076967;23;19909;-86
2023/06/17 13:36:45;;;;;;;;;;;21.70;46.00;;;;;;6075603;23;19913;-88
2023/06/17 13:39:11;;;;;;;;;;;21.70;45.70;;;;;;6097552;23;20303;-87
2023/06/17 13:41:36;;;;;;;;;;;21.70;45.70;;;;;;6072473;23;19920;-87
2023/06/17 13:44:22;;;;;;;;;;;21.70;45.30;;;;;;6074106;23;19913;-87
2023/06/17 13:46:47;;;;;;;;;;;21.70;45.90;;;;;;6096584;23;19940;-89
2023/06/17 13:49:13;;;;;;;;;;;21.80;46.80;;;;;;6074332;23;19909;-87
2023/06/17 13:51:39;;;;;;;;;;;21.80;47.00;;;;;;6100028;23;20232;-87
2023/06/17 13:54:04;;;;;;;;;;;21.80;46.50;;;;;;6099762;23;19920;-84
2023/06/17 13:56:50;;;;;;;;;;;21.80;46.90;;;;;;6100042;23;19982;-88
2023/06/17 13:59:36;;;;;;;;;;;21.80;47.10;;;;;;6100523;23;19909;-89
2023/06/17 14:02:02;;;;;;;;;;;21.80;47.40;;;;;;6101843;23;19905;-89
2023/06/17 14:04:47;;;;;;;;;;;21.80;47.30;;;;;;6097216;23;20231;-89
2023/06/17 14:07:13;;;;;;;;;;;21.70;47.40;;;;;;6098442;23;19919;-89
2023/06/17 14:09:58;;;;;;;;;;;21.70;46.80;;;;;;6096213;23;19992;-87
2023/06/17 14:12:24;;;;;;;;;;;21.80;47.30;;;;;;6099653;23;20286;-87
2023/06/17 14:14:50;;;;;;;;;;;21.70;47.00;;;;;;6099348;23;19909;-88
2023/06/17 14:17:16;;;;;;;;;;;21.80;47.50;;;;;;6076304;23;19913;-89
2023/06/17 14:19:41;;;;;;;;;;;21.70;47.40;;;;;;6075681;23;20028;-89
2023/06/17 14:22:08;;;;;;;;;;;21.70;47.30;;;;;;6100143;23;20335;-89
2023/06/17 14:24:38;;;;;;;;;;;21.70;47.70;;;;;;6076377;23;19951;-89
2023/06/17 14:27:22;;;;;;;;;;;21.80;48.70;;;;;;6076378;23;19956;-89
2023/06/17 14:29:48;;;;;;;;;;;21.80;48.00;;;;;;6099554;23;19960;-90
2023/06/17 14:32:14;;;;;;;;;;;21.80;48.80;;;;;;6099775;23;20212;-87
2023/06/17 14:34:59;;;;;;;;;;;21.80;48.10;;;;;;6075587;23;19944;-86
2023/06/17 14:37:45;;;;;;;;;;;21.80;48.50;;;;;;6125114;23;20290;-87
2023/06/17 14:40:14;;;;;;;;;;;21.80;48.70;;;;;;6099195;23;19971;-92
2023/06/17 14:42:40;;;;;;;;;;;21.80;48.60;;;;;;6077626;23;19936;-87
2023/06/17 14:45:10;;;;;;;;;;;21.80;48.50;;;;;;6076016;23;20373;-88
2023/06/17 14:47:36;;;;;;;;;;;21.80;48.80;;;;;;6076811;23;20000;-87
2023/06/17 14:50:25;;;;;;;;;;;21.80;48.50;;;;;;6098967;23;20314;-90
2023/06/17 14:52:50;;;;;;;;;;;21.80;48.50;;;;;;6100945;23;19905;-90
2023/06/17 14:55:16;;;;;;;;;;;21.90;48.20;;;;;;6071713;23;19917;-88
2023/06/17 14:57:41;;;;;;;;;;;21.80;47.80;;;;;;6072334;23;19909;-88
2023/06/17 15:00:13;;;;;;;;;;;21.90;48.20;;;;;;6071221;23;20231;-93
2023/06/17 15:03:11;;;;;;;;;;;21.80;47.90;;;;;;6072321;23;19912;-87
2023/06/17 15:05:37;;;;;;;;;;;21.80;47.80;;;;;;6071036;23;20353;-86